Airfield :
LOGIN :

Register | Disclaimer

   EN    FR    IT 

 










Legend :    VFR   Marginal VFR   IFR   Intensive IFR   Very Intensive IFR
Visi :
Ceiling :
>= 8 km
>= 3000ft
5 to 8 km
1000 to 3000 ft
1500m to 5 km
500 to 1000 ft
800 to 1500m
200 to 500 ft
< 800m
< 200 ft
Symbols :   Thunderstorms  Fog  Heavy snow  Heavy precipitations  Wind > 20 kt
SIGMETs :     Misc.  Thunderstorms  Icing  Turbulence  Mountain Waves  Volcanic Ashes







- Airport Elevation : 39 ft
- IATA code : CTA


LICC - Catania Fontanarossa

CURRENT METAR :
  • 242150Z 05005KT 9999 BKN030 23/18 Q1014

EXPIRED METARs :
  • 242120Z 05005KT 030V090 9999 SCT040 22/18 Q1014
  • 242050Z 06005KT 9999 SCT040 22/18 Q1015
  • 242020Z 03004KT 9999 FEW040 SCT110 22/18 Q1015
  • 241950Z 03005KT 9999 SCT040 SCT100 22/18 Q1014
  • 241920Z 05005KT 9999 FEW040 SCT100 22/17 Q1014

TAF TAF LICC
Valid from the 24 at 18:00 until the 25 at 18:00 UTC


241700Z 2418/2518 VRB05KT 9999 SCT025 BKN070
TEMPO 2418/2420 SHRA
TEMPO 2502/2516 3000 TSRA
BECMG 2508/2510 06012KT
No reported NOTAMs for that airfield.
3 SIGMETs reported for the Roma FIR (LIRR) :
 
Severe turbulence
LIRR SIGMET 9 VALID 242100/242300 LIIB
LIRR ROMA FIR SEV TURB FCST SW OF LINE N4128 E00837 - N3626 E01434 FL280/370 STNR NC=
Severe turbulence
LIRR SIGMET 8 VALID 242100/242300 LIIB
LIRR ROMA FIR SEV TURB FCST WI N4128 E00838 - N3630 E01423 FL280/370 STNR NC=
SIGMET 8  cancelation
LIRR SIGMET 10 VALID 242032/242300 LIIB
LIRR ROMA FIR CNL SIGMET 8 242100/242300=



MET'MAP, your aeronautical weather chart ! - Copyright ORBIFLY December 2007 - Disclaimer

ORBIFLY MET'MAP TEAM :

Programming & Development : Alexandra Zaïnal
Concept & Development : Baudouin d'Aumeries
Co-Development & Prog : Marc-Olivier Méhu
Technical & hardware support : Manuel Goepfert

Contact : metmap@orbifly.com




SOURCES & CREDITS :

   NOAA